sensor_id;sensor_type;location;lat;lon;timestamp;pressure;altitude;pressure_sealevel;temperature;humidity
33422;BME280;19763;55.798;37.782;2023-05-25T00:00:14;151451.72;;;16.59;87.39
33422;BME280;19763;55.798;37.782;2023-05-25T00:02:41;151453.03;;;16.59;87.00
33422;BME280;19763;55.798;37.782;2023-05-25T00:05:11;151455.56;;;16.60;86.58
33422;BME280;19763;55.798;37.782;2023-05-25T00:07:38;151451.72;;;16.59;87.08
33422;BME280;19763;55.798;37.782;2023-05-25T00:10:05;151451.72;;;16.59;87.34
33422;BME280;19763;55.798;37.782;2023-05-25T00:12:32;151445.31;;;16.56;87.31
33422;BME280;19763;55.798;37.782;2023-05-25T00:14:58;151414.38;;;16.44;87.35
33422;BME280;19763;55.798;37.782;2023-05-25T00:17:23;151409.22;;;16.42;87.76
33422;BME280;19763;55.798;37.782;2023-05-25T00:19:49;151397.63;;;16.37;87.50
33422;BME280;19763;55.798;37.782;2023-05-25T00:22:15;151409.22;;;16.42;87.53
33422;BME280;19763;55.798;37.782;2023-05-25T00:24:40;151407.94;;;16.41;87.50
33422;BME280;19763;55.798;37.782;2023-05-25T00:27:06;151400.22;;;16.38;87.91
33422;BME280;19763;55.798;37.782;2023-05-25T00:29:34;151388.66;;;16.33;87.68
33422;BME280;19763;55.798;37.782;2023-05-25T00:32:00;151391.19;;;16.34;87.61
33422;BME280;19763;55.798;37.782;2023-05-25T00:34:26;151387.31;;;16.33;87.65
33422;BME280;19763;55.798;37.782;2023-05-25T00:36:53;151383.47;;;16.31;88.07
33422;BME280;19763;55.798;37.782;2023-05-25T00:39:19;151380.88;;;16.30;88.07
33422;BME280;19763;55.798;37.782;2023-05-25T00:41:46;151365.44;;;16.24;87.92
33422;BME280;19763;55.798;37.782;2023-05-25T00:44:13;151339.69;;;16.14;87.79
33422;BME280;19763;55.798;37.782;2023-05-25T00:46:46;151329.38;;;16.10;88.38
33422;BME280;19763;55.798;37.782;2023-05-25T00:49:14;151346.13;;;16.16;88.18
33422;BME280;19763;55.798;37.782;2023-05-25T00:51:41;151346.13;;;16.16;87.79
33422;BME280;19763;55.798;37.782;2023-05-25T00:54:11;151348.69;;;16.17;88.27
33422;BME280;19763;55.798;37.782;2023-05-25T00:56:39;151343.53;;;16.15;88.42
33422;BME280;19763;55.798;37.782;2023-05-25T00:59:08;151335.84;;;16.12;88.58
33422;BME280;19763;55.798;37.782;2023-05-25T01:01:39;151338.41;;;16.13;88.33
33422;BME280;19763;55.798;37.782;2023-05-25T01:04:07;151338.41;;;16.13;88.60
33422;BME280;19763;55.798;37.782;2023-05-25T01:06:35;151338.41;;;16.13;88.23
33422;BME280;19763;55.798;37.782;2023-05-25T01:09:04;151316.50;;;16.04;88.44
33422;BME280;19763;55.798;37.782;2023-05-25T01:11:39;151316.50;;;16.04;88.39
33422;BME280;19763;55.798;37.782;2023-05-25T01:14:07;151325.53;;;16.08;88.08
33422;BME280;19763;55.798;37.782;2023-05-25T01:16:34;151346.13;;;16.16;88.22
33422;BME280;19763;55.798;37.782;2023-05-25T01:19:00;151346.13;;;16.16;88.21
33422;BME280;19763;55.798;37.782;2023-05-25T01:24:02;151343.53;;;16.15;88.55
33422;BME280;19763;55.798;37.782;2023-05-25T01:26:32;151294.59;;;15.96;88.74
33422;BME280;19763;55.798;37.782;2023-05-25T01:29:01;151308.78;;;16.01;89.03
33422;BME280;19763;55.798;37.782;2023-05-25T01:31:28;151302.31;;;15.99;89.19
33422;BME280;19763;55.798;37.782;2023-05-25T01:33:54;151257.28;;;15.81;90.26
33422;BME280;19763;55.798;37.782;2023-05-25T01:36:20;151283.03;;;15.91;89.74
33422;BME280;19763;55.798;37.782;2023-05-25T01:38:46;151226.31;;;15.68;89.85
33422;BME280;19763;55.798;37.782;2023-05-25T01:41:12;151298.47;;;15.97;89.43
33422;BME280;19763;55.798;37.782;2023-05-25T01:43:38;151311.34;;;16.02;89.64
33422;BME280;19763;55.798;37.782;2023-05-25T01:46:32;151307.50;;;16.01;89.54
33422;BME280;19763;55.798;37.782;2023-05-25T01:51:41;151306.22;;;16.00;89.27
33422;BME280;19763;55.798;37.782;2023-05-25T01:54:17;151316.50;;;16.04;89.24
33422;BME280;19763;55.798;37.782;2023-05-25T01:56:45;151312.63;;;16.03;89.57
33422;BME280;19763;55.798;37.782;2023-05-25T01:59:19;151301.06;;;15.98;89.80
33422;BME280;19763;55.798;37.782;2023-05-25T02:01:45;151339.69;;;16.14;89.54
33422;BME280;19763;55.798;37.782;2023-05-25T02:04:13;151350.00;;;16.18;88.95
33422;BME280;19763;55.798;37.782;2023-05-25T02:06:39;151355.13;;;16.20;89.07
33422;BME280;19763;55.798;37.782;2023-05-25T02:09:05;151362.84;;;16.23;89.52
33422;BME280;19763;55.798;37.782;2023-05-25T02:11:31;151380.88;;;16.30;89.26
33422;BME280;19763;55.798;37.782;2023-05-25T02:13:56;151384.78;;;16.32;89.22
33422;BME280;19763;55.798;37.782;2023-05-25T02:16:22;151382.19;;;16.31;89.25
33422;BME280;19763;55.798;37.782;2023-05-25T02:18:48;151391.19;;;16.34;88.93
33422;BME280;19763;55.798;37.782;2023-05-25T02:21:15;151402.81;;;16.39;89.07
33422;BME280;19763;55.798;37.782;2023-05-25T02:23:42;151409.22;;;16.42;89.24
33422;BME280;19763;55.798;37.782;2023-05-25T02:26:07;151392.50;;;16.35;90.50
33422;BME280;19763;55.798;37.782;2023-05-25T02:28:33;151378.34;;;16.29;91.33
33422;BME280;19763;55.798;37.782;2023-05-25T02:30:58;151404.09;;;16.39;90.56
33422;BME280;19763;55.798;37.782;2023-05-25T02:33:24;151415.66;;;16.44;89.97
33422;BME280;19763;55.798;37.782;2023-05-25T02:35:50;151436.28;;;16.52;89.54
33422;BME280;19763;55.798;37.782;2023-05-25T02:38:15;151442.72;;;16.55;89.97
33422;BME280;19763;55.798;37.782;2023-05-25T02:40:41;151468.47;;;16.65;89.52
33422;BME280;19763;55.798;37.782;2023-05-25T02:43:07;151471.06;;;16.66;90.19
33422;BME280;19763;55.798;37.782;2023-05-25T02:45:32;151489.09;;;16.73;89.76
33422;BME280;19763;55.798;37.782;2023-05-25T02:47:58;151508.41;;;16.81;89.17
33422;BME280;19763;55.798;37.782;2023-05-25T02:50:23;151526.50;;;16.88;89.16
33422;BME280;19763;55.798;37.782;2023-05-25T02:52:49;151522.59;;;16.87;89.92
33422;BME280;19763;55.798;37.782;2023-05-25T02:55:15;151532.94;;;16.91;90.41
33422;BME280;19763;55.798;37.782;2023-05-25T02:57:43;151541.97;;;16.95;90.05
33422;BME280;19763;55.798;37.782;2023-05-25T03:00:09;151574.19;;;17.07;89.17
33422;BME280;19763;55.798;37.782;2023-05-25T03:02:38;151597.38;;;17.17;89.19
33422;BME280;19763;55.798;37.782;2023-05-25T03:05:04;151607.69;;;17.21;89.23
33422;BME280;19763;55.798;37.782;2023-05-25T03:07:29;151625.72;;;17.28;88.94
33422;BME280;19763;55.798;37.782;2023-05-25T03:09:55;151637.31;;;17.33;88.75
33422;BME280;19763;55.798;37.782;2023-05-25T03:12:22;151636.03;;;17.32;89.04
33422;BME280;19763;55.798;37.782;2023-05-25T03:14:48;151629.59;;;17.30;89.93
33422;BME280;19763;55.798;37.782;2023-05-25T03:17:13;151641.19;;;17.34;88.91
33422;BME280;19763;55.798;37.782;2023-05-25T03:19:39;151663.13;;;17.43;88.40
33422;BME280;19763;55.798;37.782;2023-05-25T03:22:05;151679.84;;;17.50;87.95
33422;BME280;19763;55.798;37.782;2023-05-25T03:24:30;151679.84;;;17.50;87.32
33422;BME280;19763;55.798;37.782;2023-05-25T03:26:56;151691.47;;;17.54;87.58
33422;BME280;19763;55.798;37.782;2023-05-25T03:29:22;151697.88;;;17.57;87.04
33422;BME280;19763;55.798;37.782;2023-05-25T03:31:47;151709.53;;;17.62;86.83
33422;BME280;19763;55.798;37.782;2023-05-25T03:34:13;151743.03;;;17.75;86.79
33422;BME280;19763;55.798;37.782;2023-05-25T03:36:38;151755.94;;;17.80;87.21
33422;BME280;19763;55.798;37.782;2023-05-25T03:39:05;151792.09;;;17.94;86.34
33422;BME280;19763;55.798;37.782;2023-05-25T03:41:31;151811.41;;;18.02;85.91
33422;BME280;19763;55.798;37.782;2023-05-25T03:43:57;151826.88;;;18.08;85.91
33422;BME280;19763;55.798;37.782;2023-05-25T03:46:22;151844.97;;;18.16;85.79
33422;BME280;19763;55.798;37.782;2023-05-25T03:48:48;151866.88;;;18.24;85.01
33422;BME280;19763;55.798;37.782;2023-05-25T03:51:13;151878.47;;;18.29;84.56
33422;BME280;19763;55.798;37.782;2023-05-25T03:53:39;151915.84;;;18.44;84.57
33422;BME280;19763;55.798;37.782;2023-05-25T03:56:05;151939.09;;;18.53;84.40
33422;BME280;19763;55.798;37.782;2023-05-25T03:58:30;151954.56;;;18.59;84.14
33422;BME280;19763;55.798;37.782;2023-05-25T04:00:56;151985.53;;;18.72;84.44
33422;BME280;19763;55.798;37.782;2023-05-25T04:03:22;151988.13;;;18.73;83.24
33422;BME280;19763;55.798;37.782;2023-05-25T04:05:48;152019.06;;;18.85;82.84
33422;BME280;19763;55.798;37.782;2023-05-25T04:08:14;152035.91;;;18.92;82.65
33422;BME280;19763;55.798;37.782;2023-05-25T04:10:49;152039.75;;;18.93;82.36
33422;BME280;19763;55.798;37.782;2023-05-25T04:13:14;152059.16;;;19.01;82.35
33422;BME280;19763;55.798;37.782;2023-05-25T04:15:40;152079.75;;;19.09;82.14
33422;BME280;19763;55.798;37.782;2023-05-25T04:18:05;152081.06;;;19.10;82.46
33422;BME280;19763;55.798;37.782;2023-05-25T04:20:31;152108.16;;;19.21;82.16
33422;BME280;19763;55.798;37.782;2023-05-25T04:22:57;152106.88;;;19.20;81.55
33422;BME280;19763;55.798;37.782;2023-05-25T04:25:22;152136.53;;;19.32;81.84
33422;BME280;19763;55.798;37.782;2023-05-25T04:27:48;152159.78;;;19.41;81.13
33422;BME280;19763;55.798;37.782;2023-05-25T04:30:14;152166.25;;;19.44;80.14
33422;BME280;19763;55.798;37.782;2023-05-25T04:32:40;152181.72;;;19.50;80.16
33422;BME280;19763;55.798;37.782;2023-05-25T04:35:06;152174.00;;;19.47;79.06
33422;BME280;19763;55.798;37.782;2023-05-25T04:37:32;152215.28;;;19.63;79.11
33422;BME280;19763;55.798;37.782;2023-05-25T04:39:58;152245.00;;;19.75;79.32
33422;BME280;19763;55.798;37.782;2023-05-25T04:42:24;152250.13;;;19.77;78.84
33422;BME280;19763;55.798;37.782;2023-05-25T04:44:51;152291.53;;;19.94;77.92
33422;BME280;19763;55.798;37.782;2023-05-25T04:47:20;152304.41;;;19.99;78.47
33422;BME280;19763;55.798;37.782;2023-05-25T04:49:46;152308.28;;;20.00;78.38
33422;BME280;19763;55.798;37.782;2023-05-25T04:52:12;152303.13;;;19.98;77.42
33422;BME280;19763;55.798;37.782;2023-05-25T04:54:38;152323.81;;;20.07;77.89
33422;BME280;19763;55.798;37.782;2023-05-25T04:57:03;152341.88;;;20.14;78.06
33422;BME280;19763;55.798;37.782;2023-05-25T04:59:29;152356.09;;;20.20;78.14
33422;BME280;19763;55.798;37.782;2023-05-25T05:01:55;152361.22;;;20.22;77.51
33422;BME280;19763;55.798;37.782;2023-05-25T05:04:20;152379.31;;;20.29;77.48
33422;BME280;19763;55.798;37.782;2023-05-25T05:06:46;152387.03;;;20.32;77.45
33422;BME280;19763;55.798;37.782;2023-05-25T05:09:11;152398.69;;;20.37;77.20
33422;BME280;19763;55.798;37.782;2023-05-25T05:11:37;152412.91;;;20.42;77.70
33422;BME280;19763;55.798;37.782;2023-05-25T05:14:03;152419.34;;;20.45;77.05
33422;BME280;19763;55.798;37.782;2023-05-25T05:16:29;152415.47;;;20.43;77.65
33422;BME280;19763;55.798;37.782;2023-05-25T05:18:59;152402.56;;;20.38;76.62
33422;BME280;19763;55.798;37.782;2023-05-25T05:21:24;152403.84;;;20.39;76.62
33422;BME280;19763;55.798;37.782;2023-05-25T05:23:50;152397.38;;;20.36;75.79
33422;BME280;19763;55.798;37.782;2023-05-25T05:26:16;152409.00;;;20.41;76.14
33422;BME280;19763;55.798;37.782;2023-05-25T05:28:41;152405.13;;;20.39;76.67
33422;BME280;19763;55.798;37.782;2023-05-25T05:31:07;152416.78;;;20.44;77.19
33422;BME280;19763;55.798;37.782;2023-05-25T05:33:32;152379.31;;;20.29;76.57
33422;BME280;19763;55.798;37.782;2023-05-25T05:35:58;152392.25;;;20.34;77.31
33422;BME280;19763;55.798;37.782;2023-05-25T05:38:25;152184.31;;;19.51;76.98
33422;BME280;19763;55.798;37.782;2023-05-25T05:40:51;152387.03;;;20.32;77.02
33422;BME280;19763;55.798;37.782;2023-05-25T05:43:17;152378.03;;;20.28;77.37
33422;BME280;19763;55.798;37.782;2023-05-25T05:45:42;152370.28;;;20.25;77.94
33422;BME280;19763;55.798;37.782;2023-05-25T05:48:08;152365.09;;;20.23;77.59
33422;BME280;19763;55.798;37.782;2023-05-25T05:50:37;152371.56;;;20.26;78.05
33422;BME280;19763;55.798;37.782;2023-05-25T05:53:04;152366.41;;;20.24;78.40
33422;BME280;19763;55.798;37.782;2023-05-25T05:55:30;152352.22;;;20.18;78.00
33422;BME280;19763;55.798;37.782;2023-05-25T05:57:56;152350.91;;;20.17;77.69
33422;BME280;19763;55.798;37.782;2023-05-25T06:00:22;152353.50;;;20.18;78.23
33422;BME280;19763;55.798;37.782;2023-05-25T06:02:47;152335.41;;;20.11;78.53
33422;BME280;19763;55.798;37.782;2023-05-25T06:05:13;152341.88;;;20.14;78.74
33422;BME280;19763;55.798;37.782;2023-05-25T06:07:39;152317.34;;;20.04;78.91
33422;BME280;19763;55.798;37.782;2023-05-25T06:10:05;152323.81;;;20.07;78.34
33422;BME280;19763;55.798;37.782;2023-05-25T06:12:31;152317.34;;;20.04;78.72
33422;BME280;19763;55.798;37.782;2023-05-25T06:14:56;152300.53;;;19.97;79.12
33422;BME280;19763;55.798;37.782;2023-05-25T06:17:22;152303.13;;;19.98;78.54
33422;BME280;19763;55.798;37.782;2023-05-25T06:19:48;152303.13;;;19.98;78.87
33422;BME280;19763;55.798;37.782;2023-05-25T06:22:16;152303.13;;;19.98;79.20
33422;BME280;19763;55.798;37.782;2023-05-25T06:24:42;152296.66;;;19.96;79.59
33422;BME280;19763;55.798;37.782;2023-05-25T06:27:08;152276.00;;;19.88;79.04
33422;BME280;19763;55.798;37.782;2023-05-25T06:29:33;152281.19;;;19.90;79.46
33422;BME280;19763;55.798;37.782;2023-05-25T06:31:59;152260.53;;;19.81;79.81
33422;BME280;19763;55.798;37.782;2023-05-25T06:34:25;152285.06;;;19.91;79.69
33422;BME280;19763;55.798;37.782;2023-05-25T06:36:51;152281.19;;;19.90;80.08
33422;BME280;19763;55.798;37.782;2023-05-25T06:39:17;152279.88;;;19.89;79.78
33422;BME280;19763;55.798;37.782;2023-05-25T06:41:42;152287.59;;;19.92;80.02
33422;BME280;19763;55.798;37.782;2023-05-25T06:44:08;152268.25;;;19.85;80.61
33422;BME280;19763;55.798;37.782;2023-05-25T06:46:34;152273.44;;;19.87;80.26
33422;BME280;19763;55.798;37.782;2023-05-25T06:49:01;152267.00;;;19.84;80.87
33422;BME280;19763;55.798;37.782;2023-05-25T06:51:27;152250.13;;;19.77;80.43
33422;BME280;19763;55.798;37.782;2023-05-25T06:53:55;152216.59;;;19.64;80.53
33422;BME280;19763;55.798;37.782;2023-05-25T06:56:21;152198.53;;;19.57;80.75
33422;BME280;19763;55.798;37.782;2023-05-25T06:58:48;152217.88;;;19.64;80.78
33422;BME280;19763;55.798;37.782;2023-05-25T07:01:13;152237.22;;;19.72;80.48
33422;BME280;19763;55.798;37.782;2023-05-25T07:03:40;152254.06;;;19.79;80.72
33422;BME280;19763;55.798;37.782;2023-05-25T07:06:06;152252.75;;;19.78;80.66
33422;BME280;19763;55.798;37.782;2023-05-25T07:08:31;152252.75;;;19.78;80.01
33422;BME280;19763;55.798;37.782;2023-05-25T07:10:57;152261.78;;;19.82;80.00
33422;BME280;19763;55.798;37.782;2023-05-25T07:13:23;152278.59;;;19.89;80.22
33422;BME280;19763;55.798;37.782;2023-05-25T07:15:48;152276.00;;;19.88;80.59
33422;BME280;19763;55.798;37.782;2023-05-25T07:18:14;152278.59;;;19.89;80.81
33422;BME280;19763;55.798;37.782;2023-05-25T07:20:40;152297.94;;;19.96;80.98
33422;BME280;19763;55.798;37.782;2023-05-25T07:23:12;152292.78;;;19.94;81.10
33422;BME280;19763;55.798;37.782;2023-05-25T07:25:39;152303.13;;;19.98;80.70
33422;BME280;19763;55.798;37.782;2023-05-25T07:28:05;152294.06;;;19.95;81.19
33422;BME280;19763;55.798;37.782;2023-05-25T07:30:31;152274.72;;;19.87;80.53
33422;BME280;19763;55.798;37.782;2023-05-25T07:32:57;152276.00;;;19.88;80.05
33422;BME280;19763;55.798;37.782;2023-05-25T07:35:23;152282.47;;;19.90;80.82
33422;BME280;19763;55.798;37.782;2023-05-25T07:37:56;152239.81;;;19.73;80.66
33422;BME280;19763;55.798;37.782;2023-05-25T07:40:22;152217.88;;;19.64;80.84
33422;BME280;19763;55.798;37.782;2023-05-25T07:42:48;152237.22;;;19.72;80.91
33422;BME280;19763;55.798;37.782;2023-05-25T07:45:13;152255.34;;;19.79;81.76
33422;BME280;19763;55.798;37.782;2023-05-25T07:47:40;152252.75;;;19.78;82.23
33422;BME280;19763;55.798;37.782;2023-05-25T07:50:06;152259.25;;;19.81;82.20
33422;BME280;19763;55.798;37.782;2023-05-25T07:52:31;152242.41;;;19.74;82.37
33422;BME280;19763;55.798;37.782;2023-05-25T07:54:57;152245.00;;;19.75;82.21
33422;BME280;19763;55.798;37.782;2023-05-25T07:57:22;152212.72;;;19.62;83.38
33422;BME280;19763;55.798;37.782;2023-05-25T07:59:49;152255.34;;;19.79;83.45
33422;BME280;19763;55.798;37.782;2023-05-25T08:02:15;152268.25;;;19.85;83.78
33422;BME280;19763;55.798;37.782;2023-05-25T08:04:41;152269.53;;;19.85;84.37
33422;BME280;19763;55.798;37.782;2023-05-25T08:07:06;152283.75;;;19.91;84.69
33422;BME280;19763;55.798;37.782;2023-05-25T08:09:32;152268.25;;;19.85;84.14
33422;BME280;19763;55.798;37.782;2023-05-25T08:11:58;152288.94;;;19.93;83.92
33422;BME280;19763;55.798;37.782;2023-05-25T08:14:24;152291.53;;;19.94;84.78
33422;BME280;19763;55.798;37.782;2023-05-25T08:16:50;152282.47;;;19.90;83.98
33422;BME280;19763;55.798;37.782;2023-05-25T08:19:16;152299.25;;;19.97;84.22
33422;BME280;19763;55.798;37.782;2023-05-25T08:21:41;152264.38;;;19.83;86.07
33422;BME280;19763;55.798;37.782;2023-05-25T08:24:07;152267.00;;;19.84;85.97
33422;BME280;19763;55.798;37.782;2023-05-25T08:26:33;152283.75;;;19.91;86.11
33422;BME280;19763;55.798;37.782;2023-05-25T08:29:04;152270.84;;;19.86;86.18
33422;BME280;19763;55.798;37.782;2023-05-25T08:31:33;152255.34;;;19.79;86.73
33422;BME280;19763;55.798;37.782;2023-05-25T08:33:59;152270.84;;;19.86;86.53
33422;BME280;19763;55.798;37.782;2023-05-25T08:36:25;152272.13;;;19.86;86.34
33422;BME280;19763;55.798;37.782;2023-05-25T08:38:51;152235.94;;;19.72;86.78
33422;BME280;19763;55.798;37.782;2023-05-25T08:41:18;152260.53;;;19.81;86.53
33422;BME280;19763;55.798;37.782;2023-05-25T08:43:44;152255.34;;;19.79;87.31
33422;BME280;19763;55.798;37.782;2023-05-25T08:46:10;152256.66;;;19.80;87.29
33422;BME280;19763;55.798;37.782;2023-05-25T08:48:37;152260.53;;;19.81;87.59
33422;BME280;19763;55.798;37.782;2023-05-25T08:51:08;152238.53;;;19.73;88.01
33422;BME280;19763;55.798;37.782;2023-05-25T08:53:36;152195.94;;;19.56;88.16
33422;BME280;19763;55.798;37.782;2023-05-25T08:56:08;152189.47;;;19.53;87.67
33422;BME280;19763;55.798;37.782;2023-05-25T08:58:44;152183.00;;;19.51;87.53
33422;BME280;19763;55.798;37.782;2023-05-25T09:01:14;152201.06;;;19.58;88.38
33422;BME280;19763;55.798;37.782;2023-05-25T09:03:42;152203.66;;;19.59;88.21
33422;BME280;19763;55.798;37.782;2023-05-25T09:06:08;152201.06;;;19.58;88.67
33422;BME280;19763;55.798;37.782;2023-05-25T09:08:34;152199.81;;;19.57;89.34
33422;BME280;19763;55.798;37.782;2023-05-25T09:11:02;152195.94;;;19.56;90.33
33422;BME280;19763;55.798;37.782;2023-05-25T09:13:28;152192.06;;;19.54;91.01
33422;BME280;19763;55.798;37.782;2023-05-25T09:15:54;152175.28;;;19.47;91.00
33422;BME280;19763;55.798;37.782;2023-05-25T09:18:20;152188.19;;;19.53;91.35
33422;BME280;19763;55.798;37.782;2023-05-25T09:20:45;152193.34;;;19.55;91.98
33422;BME280;19763;55.798;37.782;2023-05-25T09:23:12;152189.47;;;19.53;93.17
33422;BME280;19763;55.798;37.782;2023-05-25T09:25:39;152168.81;;;19.45;90.00
33422;BME280;19763;55.798;37.782;2023-05-25T09:28:07;152155.94;;;19.40;90.62
33422;BME280;19763;55.798;37.782;2023-05-25T09:30:32;152161.06;;;19.42;91.21
33422;BME280;19763;55.798;37.782;2023-05-25T09:33:12;152144.28;;;19.35;91.02
33422;BME280;19763;55.798;37.782;2023-05-25T09:35:39;152137.84;;;19.33;91.08
33422;BME280;19763;55.798;37.782;2023-05-25T09:38:05;152155.94;;;19.40;91.14
33422;BME280;19763;55.798;37.782;2023-05-25T09:40:36;152152.06;;;19.38;92.14
33422;BME280;19763;55.798;37.782;2023-05-25T09:43:02;152175.28;;;19.47;92.45
33422;BME280;19763;55.798;37.782;2023-05-25T09:45:28;152183.00;;;19.51;93.28
33422;BME280;19763;55.798;37.782;2023-05-25T09:47:58;152199.81;;;19.57;94.04
33422;BME280;19763;55.798;37.782;2023-05-25T09:50:28;152201.06;;;19.58;93.33
33422;BME280;19763;55.798;37.782;2023-05-25T09:52:58;152226.88;;;19.68;94.18
33422;BME280;19763;55.798;37.782;2023-05-25T09:55:28;152237.22;;;19.72;94.46
33422;BME280;19763;55.798;37.782;2023-05-25T09:57:55;152248.88;;;19.77;93.55
33422;BME280;19763;55.798;37.782;2023-05-25T10:00:24;152263.13;;;19.82;93.96
33422;BME280;19763;55.798;37.782;2023-05-25T10:02:50;152277.31;;;19.88;94.03
33422;BME280;19763;55.798;37.782;2023-05-25T10:05:16;152286.34;;;19.92;94.23
33422;BME280;19763;55.798;37.782;2023-05-25T10:07:44;152255.34;;;19.79;93.74
33422;BME280;19763;55.798;37.782;2023-05-25T10:10:12;152288.94;;;19.93;93.34
33422;BME280;19763;55.798;37.782;2023-05-25T10:12:43;152281.19;;;19.90;93.59
33422;BME280;19763;55.798;37.782;2023-05-25T10:15:13;152288.94;;;19.93;94.12
33422;BME280;19763;55.798;37.782;2023-05-25T10:18:08;152291.53;;;19.94;94.47
33422;BME280;19763;55.798;37.782;2023-05-25T10:20:34;152282.47;;;19.90;93.29
33422;BME280;19763;55.798;37.782;2023-05-25T10:23:07;152259.25;;;19.81;93.15
33422;BME280;19763;55.798;37.782;2023-05-25T10:25:39;152251.41;;;19.78;92.35
33422;BME280;19763;55.798;37.782;2023-05-25T10:30:52;152265.66;;;19.83;94.14
33422;BME280;19763;55.798;37.782;2023-05-25T10:33:20;152257.94;;;19.80;95.31
33422;BME280;19763;55.798;37.782;2023-05-25T10:35:45;152265.66;;;19.83;94.73
33422;BME280;19763;55.798;37.782;2023-05-25T10:38:13;152272.13;;;19.86;94.00
33422;BME280;19763;55.798;37.782;2023-05-25T10:40:39;152269.53;;;19.85;93.85
33422;BME280;19763;55.798;37.782;2023-05-25T10:43:05;152256.66;;;19.80;93.75
33422;BME280;19763;55.798;37.782;2023-05-25T10:45:32;152285.06;;;19.91;93.78
33422;BME280;19763;55.798;37.782;2023-05-25T10:47:58;152294.06;;;19.95;93.22
33422;BME280;19763;55.798;37.782;2023-05-25T10:50:25;152263.13;;;19.82;92.98
33422;BME280;19763;55.798;37.782;2023-05-25T10:53:02;152269.53;;;19.85;93.65
33422;BME280;19763;55.798;37.782;2023-05-25T10:58:13;152248.88;;;19.77;94.38
33422;BME280;19763;55.798;37.782;2023-05-25T11:00:40;152242.41;;;19.74;94.14
33422;BME280;19763;55.798;37.782;2023-05-25T11:03:06;152245.00;;;19.75;92.82
33422;BME280;19763;55.798;37.782;2023-05-25T11:05:36;152238.53;;;19.73;93.39
33422;BME280;19763;55.798;37.782;2023-05-25T11:08:07;152260.53;;;19.81;94.04
33422;BME280;19763;55.798;37.782;2023-05-25T11:10:49;152239.81;;;19.73;94.56
33422;BME280;19763;55.798;37.782;2023-05-25T11:13:36;152214.00;;;19.63;94.30
33422;BME280;19763;55.798;37.782;2023-05-25T11:16:16;152235.94;;;19.72;94.61
33422;BME280;19763;55.798;37.782;2023-05-25T11:18:54;152221.75;;;19.66;94.82
33422;BME280;19763;55.798;37.782;2023-05-25T11:24:02;152177.84;;;19.48;93.04
33422;BME280;19763;55.798;37.782;2023-05-25T11:26:34;152202.41;;;19.58;92.74
33422;BME280;19763;55.798;37.782;2023-05-25T11:29:10;152202.41;;;19.58;92.47
33422;BME280;19763;55.798;37.782;2023-05-25T11:31:36;152199.81;;;19.57;92.78
33422;BME280;19763;55.798;37.782;2023-05-25T11:34:03;152204.94;;;19.59;92.31
33422;BME280;19763;55.798;37.782;2023-05-25T11:36:30;152193.34;;;19.55;92.39
33422;BME280;19763;55.798;37.782;2023-05-25T11:38:58;152208.81;;;19.61;92.26
33422;BME280;19763;55.798;37.782;2023-05-25T11:41:26;152208.81;;;19.61;92.62
33422;BME280;19763;55.798;37.782;2023-05-25T11:43:52;152141.72;;;19.34;93.41
33422;BME280;19763;55.798;37.782;2023-05-25T11:46:19;152202.41;;;19.58;94.28
33422;BME280;19763;55.798;37.782;2023-05-25T11:48:50;152174.00;;;19.47;93.99
33422;BME280;19763;55.798;37.782;2023-05-25T11:51:20;152188.19;;;19.53;93.57
33422;BME280;19763;55.798;37.782;2023-05-25T11:53:46;152175.28;;;19.47;93.33
33422;BME280;19763;55.798;37.782;2023-05-25T11:56:16;152133.94;;;19.31;94.07
33422;BME280;19763;55.798;37.782;2023-05-25T11:58:44;152152.06;;;19.38;93.11
33422;BME280;19763;55.798;37.782;2023-05-25T12:01:21;152143.00;;;19.35;93.32
33422;BME280;19763;55.798;37.782;2023-05-25T12:03:51;152161.06;;;19.42;92.95
33422;BME280;19763;55.798;37.782;2023-05-25T12:06:32;152152.06;;;19.38;92.90
33422;BME280;19763;55.798;37.782;2023-05-25T12:09:10;152190.75;;;19.54;92.22
33422;BME280;19763;55.798;37.782;2023-05-25T12:11:36;152221.75;;;19.66;93.41
33422;BME280;19763;55.798;37.782;2023-05-25T12:14:09;152250.13;;;19.77;92.66
33422;BME280;19763;55.798;37.782;2023-05-25T12:16:36;152267.00;;;19.84;93.67
33422;BME280;19763;55.798;37.782;2023-05-25T12:19:08;152264.38;;;19.83;91.32
33422;BME280;19763;55.798;37.782;2023-05-25T12:21:36;152237.22;;;19.72;91.25
33422;BME280;19763;55.798;37.782;2023-05-25T12:24:03;152243.69;;;19.75;89.91
33422;BME280;19763;55.798;37.782;2023-05-25T12:26:30;152252.75;;;19.78;89.51
33422;BME280;19763;55.798;37.782;2023-05-25T12:31:27;152215.28;;;19.63;89.02
33422;BME280;19763;55.798;37.782;2023-05-25T12:34:10;152230.78;;;19.70;89.54
33422;BME280;19763;55.798;37.782;2023-05-25T12:36:40;152201.06;;;19.58;89.32
33422;BME280;19763;55.798;37.782;2023-05-25T12:39:07;152174.00;;;19.47;89.08
33422;BME280;19763;55.798;37.782;2023-05-25T12:41:49;152194.59;;;19.55;89.20
33422;BME280;19763;55.798;37.782;2023-05-25T12:44:16;152204.94;;;19.59;89.42
33422;BME280;19763;55.798;37.782;2023-05-25T12:46:42;152190.75;;;19.54;89.22
33422;BME280;19763;55.798;37.782;2023-05-25T12:51:49;152193.34;;;19.55;88.44
33422;BME280;19763;55.798;37.782;2023-05-25T12:54:15;152185.59;;;19.52;89.18
33422;BME280;19763;55.798;37.782;2023-05-25T12:56:55;152179.13;;;19.49;87.91
33422;BME280;19763;55.798;37.782;2023-05-25T12:59:21;152149.47;;;19.37;87.80